Time;durP1;ratioP1;P1;durP2;ratioP2;P2;SDS_P1;SDS_P2;PMS_P1;PMS_P2;Temp;Humidity;BMP_temperature;BMP_pressure;BME280_temperature;BME280_humidity;BME280_pressure;Samples;Min_cycle;Max_cycle;Signal;HPM_P1;HPM_P2
2021/05/10 00:00:25;;;;;;;10.18;4.80;;;;;;;16.92;100.00;99220.72;5062857;28;20071;-55
2021/05/10 00:02:51;;;;;;;8.20;4.22;;;;;;;16.95;100.00;99207.56;5060598;28;20041;-55
2021/05/10 00:05:18;;;;;;;8.73;4.88;;;;;;;16.89;100.00;99205.84;5061092;28;20048;-55
2021/05/10 00:07:47;;;;;;;8.75;4.50;;;;;;;16.85;100.00;99200.13;5060108;28;20041;-55
2021/05/10 00:10:14;;;;;;;8.10;4.32;;;;;;;16.91;100.00;99194.81;5059022;28;20040;-54
2021/05/10 00:12:40;;;;;;;6.70;4.20;;;;;;;16.98;100.00;99198.19;5056950;28;20033;-56
2021/05/10 00:15:10;;;;;;;7.57;4.40;;;;;;;17.04;100.00;99186.44;5062143;28;20048;-55
2021/05/10 00:17:37;;;;;;;7.93;4.30;;;;;;;17.01;100.00;99173.41;5060211;28;20075;-54
2021/05/10 00:20:05;;;;;;;5.75;4.10;;;;;;;17.02;100.00;99164.28;5063049;28;20060;-55
2021/05/10 00:22:32;;;;;;;10.60;5.20;;;;;;;16.93;100.00;99157.66;5056299;28;20048;-55
2021/05/10 00:25:00;;;;;;;6.70;4.13;;;;;;;16.94;100.00;99152.03;5062258;28;20040;-54
2021/05/10 00:27:27;;;;;;;7.90;4.47;;;;;;;16.84;100.00;99144.56;5057938;28;20511;-52
2021/05/10 00:29:54;;;;;;;5.55;4.07;;;;;;;16.96;100.00;99131.03;5058007;28;20045;-55
2021/05/10 00:32:21;;;;;;;7.70;4.20;;;;;;;16.91;100.00;99116.66;5058573;28;20048;-55
2021/05/10 00:34:56;;;;;;;6.15;3.95;;;;;;;16.87;100.00;99114.41;5057742;28;20045;-55
2021/05/10 00:37:23;;;;;;;8.10;4.88;;;;;;;16.77;100.00;99106.19;5059422;28;20255;-53
2021/05/10 00:39:49;;;;;;;5.88;4.20;;;;;;;16.78;100.00;99102.41;5061212;28;20044;-55
2021/05/10 00:42:17;;;;;;;6.60;4.88;;;;;;;16.59;100.00;99109.13;5056125;28;20037;-54
2021/05/10 00:44:44;;;;;;;7.47;4.97;;;;;;;16.53;100.00;99105.53;5062338;28;20041;-55
2021/05/10 00:47:12;;;;;;;11.70;5.20;;;;;;;16.49;100.00;99107.06;5060774;28;20040;-55
2021/05/10 00:49:39;;;;;;;5.45;4.00;;;;;;;16.49;100.00;99110.56;5059890;28;20506;-56
2021/05/10 00:52:06;;;;;;;6.10;4.70;;;;;;;16.41;100.00;99108.25;5060125;28;20037;-54
2021/05/10 00:54:33;;;;;;;9.95;5.20;;;;;;;16.38;100.00;99108.75;5060957;28;20440;-55
2021/05/10 00:57:00;;;;;;;6.10;4.72;;;;;;;16.41;100.00;99100.19;5062439;28;20098;-55
2021/05/10 00:59:27;;;;;;;12.35;5.57;;;;;;;16.41;100.00;99112.84;5059867;28;20340;-56
2021/05/10 01:01:54;;;;;;;7.78;5.30;;;;;;;16.30;100.00;99101.06;5063823;28;20048;-55
2021/05/10 01:04:22;;;;;;;8.35;5.05;;;;;;;16.11;100.00;99103.97;5059652;28;20155;-55
2021/05/10 01:06:48;;;;;;;8.88;5.22;;;;;;;16.18;100.00;99099.25;5059313;28;20236;-56
2021/05/10 01:09:15;;;;;;;9.60;5.57;;;;;;;16.14;100.00;99108.06;5061409;28;20325;-56
2021/05/10 01:11:42;;;;;;;7.10;5.15;;;;;;;16.03;100.00;99093.59;5059807;28;20356;-54
2021/05/10 01:14:09;;;;;;;8.50;5.50;;;;;;;15.97;100.00;99094.56;5056586;28;20391;-55
2021/05/10 01:16:37;;;;;;;9.52;5.50;;;;;;;15.99;100.00;99082.50;5057406;28;20050;-55
2021/05/10 01:19:05;;;;;;;11.02;5.47;;;;;;;15.86;100.00;99087.34;5056289;28;20075;-55
2021/05/10 01:21:32;;;;;;;7.57;5.40;;;;;;;15.97;100.00;99092.66;5063651;28;20052;-54
2021/05/10 01:24:01;;;;;;;9.95;5.55;;;;;;;16.08;100.00;99088.31;5055883;28;20522;-55
2021/05/10 01:26:28;;;;;;;7.45;5.18;;;;;;;16.23;100.00;99089.63;5061345;28;20036;-55
2021/05/10 01:28:55;;;;;;;8.70;5.38;;;;;;;16.34;100.00;99094.97;5056952;28;20456;-55
2021/05/10 01:31:22;;;;;;;12.00;6.00;;;;;;;16.43;100.00;99087.31;5058728;28;20048;-53
2021/05/10 01:33:49;;;;;;;8.80;5.70;;;;;;;16.44;100.00;99086.22;5059264;28;20040;-54
2021/05/10 01:36:16;;;;;;;12.77;6.18;;;;;;;16.51;100.00;99089.59;5056084;28;20045;-56
2021/05/10 01:38:43;;;;;;;8.15;5.05;;;;;;;16.47;100.00;99082.22;5060559;28;20040;-53
2021/05/10 01:41:11;;;;;;;8.52;5.28;;;;;;;16.49;100.00;99083.63;5061522;28;20037;-52
2021/05/10 01:43:38;;;;;;;6.63;4.72;;;;;;;16.51;100.00;99089.59;5059048;28;20329;-53
2021/05/10 01:46:05;;;;;;;11.45;5.35;;;;;;;16.65;100.00;99083.88;5058424;28;20365;-55
2021/05/10 01:48:32;;;;;;;7.30;4.82;;;;;;;16.65;100.00;99089.25;5056672;28;20037;-55
2021/05/10 01:50:59;;;;;;;8.77;4.80;;;;;;;16.66;100.00;99085.50;5063268;28;20041;-54
2021/05/10 01:53:26;;;;;;;7.38;4.68;;;;;;;16.53;100.00;99079.38;5058277;28;20052;-53
2021/05/10 01:55:53;;;;;;;9.73;4.80;;;;;;;16.35;100.00;99082.31;5061705;28;20041;-56
2021/05/10 01:58:21;;;;;;;8.32;4.78;;;;;;;16.32;100.00;99090.88;5060160;28;20317;-55
2021/05/10 02:00:48;;;;;;;7.63;4.75;;;;;;;16.37;100.00;99099.03;5060484;28;20061;-54
2021/05/10 02:03:16;;;;;;;11.20;5.07;;;;;;;16.59;100.00;99099.13;5059166;28;20428;-55
2021/05/10 02:05:44;;;;;;;15.00;5.63;;;;;;;16.64;100.00;99093.00;5058732;28;20033;-55
2021/05/10 02:08:13;;;;;;;9.05;5.50;;;;;;;16.25;100.00;99103.69;5057135;28;20045;-55
2021/05/10 02:10:41;;;;;;;8.27;4.60;;;;;;;16.60;100.00;99094.56;5059612;28;20056;-55
2021/05/10 02:13:10;;;;;;;8.82;4.70;;;;;;;16.43;100.00;99099.94;5056861;28;20325;-55
2021/05/10 02:15:40;;;;;;;5.38;4.75;;;;;;;16.23;100.00;99105.78;5059126;28;20041;-55
2021/05/10 02:18:08;;;;;;;8.68;5.15;;;;;;;16.39;100.00;99099.63;5060687;28;20047;-55
2021/05/10 02:20:35;;;;;;;9.07;4.60;;;;;;;16.38;100.00;99100.66;5057073;28;20037;-53
2021/05/10 02:23:04;;;;;;;9.35;4.78;;;;;;;16.51;100.00;99104.94;5054256;28;20052;-54
2021/05/10 02:25:32;;;;;;;8.48;4.57;;;;;;;16.51;100.00;99095.00;5053289;28;20044;-55
2021/05/10 02:27:59;;;;;;;7.03;5.10;;;;;;;16.67;100.00;99101.44;5057426;28;20049;-54
2021/05/10 02:30:29;;;;;;;8.13;4.43;;;;;;;16.77;100.00;99098.09;5058058;28;20052;-55
2021/05/10 02:32:58;;;;;;;6.50;4.35;;;;;;;16.62;100.00;99095.94;5054306;28;20094;-55
2021/05/10 02:35:25;;;;;;;8.10;4.20;;;;;;;16.65;100.00;99090.06;5059522;28;20045;-53
2021/05/10 02:37:52;;;;;;;7.75;4.60;;;;;;;16.90;100.00;99115.84;5054774;28;20045;-55
2021/05/10 02:40:20;;;;;;;6.28;4.18;;;;;;;16.75;100.00;99127.16;5060159;28;20052;-56
2021/05/10 02:42:47;;;;;;;5.47;4.07;;;;;;;16.65;100.00;99153.94;5058575;28;20056;-55
2021/05/10 02:45:15;;;;;;;8.10;4.40;;;;;;;16.65;100.00;99164.72;5058650;28;20037;-54
2021/05/10 02:47:42;;;;;;;14.68;5.55;;;;;;;16.55;100.00;99178.03;5057680;28;20055;-55
2021/05/10 02:50:12;;;;;;;5.97;4.18;;;;;;;16.33;100.00;99201.06;5054487;28;20048;-56
2021/05/10 02:52:39;;;;;;;8.13;4.75;;;;;;;16.02;100.00;99213.13;5056996;28;20037;-53
2021/05/10 02:55:08;;;;;;;5.57;2.95;;;;;;;15.79;100.00;99198.66;5059866;28;20045;-51
2021/05/10 02:57:36;;;;;;;8.65;2.95;;;;;;;15.60;100.00;99229.41;5060352;28;20102;-48
2021/05/10 03:00:05;;;;;;;5.15;2.30;;;;;;;15.47;100.00;99225.88;5059430;28;20040;-56
2021/05/10 03:02:32;;;;;;;3.90;1.85;;;;;;;15.47;100.00;99252.78;5056342;28;20050;-57
2021/05/10 03:05:00;;;;;;;3.08;2.38;;;;;;;15.02;100.00;99265.94;5059374;28;20037;-57
2021/05/10 03:07:28;;;;;;;4.97;2.47;;;;;;;15.02;100.00;99256.00;5054714;28;20056;-55
2021/05/10 03:09:55;;;;;;;8.43;2.65;;;;;;;15.04;100.00;99263.84;5060333;28;20443;-56
2021/05/10 03:12:22;;;;;;;2.85;2.22;;;;;;;15.09;100.00;99261.28;5055835;28;20281;-54
2021/05/10 03:14:49;;;;;;;5.05;2.67;;;;;;;15.05;100.00;99262.78;5059361;28;20053;-54
2021/05/10 03:17:16;;;;;;;4.05;2.00;;;;;;;15.17;100.00;99266.34;5056663;28;20049;-56
2021/05/10 03:19:43;;;;;;;3.55;2.13;;;;;;;15.19;100.00;99260.72;5058900;28;20036;-56
2021/05/10 03:22:10;;;;;;;3.42;2.10;;;;;;;15.30;100.00;99241.09;5054945;28;20041;-56
2021/05/10 03:24:39;;;;;;;3.47;2.28;;;;;;;15.27;100.00;99226.25;5059334;28;20039;-56
2021/05/10 03:27:07;;;;;;;6.50;2.47;;;;;;;15.17;100.00;99226.00;5058577;28;20040;-56
2021/05/10 03:29:33;;;;;;;3.58;2.30;;;;;;;15.09;100.00;99213.69;5055232;28;20032;-55
2021/05/10 03:32:00;;;;;;;7.45;2.65;;;;;;;15.18;100.00;99227.63;5054413;28;20048;-56
2021/05/10 03:34:27;;;;;;;4.85;2.22;;;;;;;15.18;100.00;99240.25;5055172;28;20119;-55
2021/05/10 03:36:55;;;;;;;3.92;2.42;;;;;;;15.10;100.00;99249.50;5059027;28;20047;-55
2021/05/10 03:39:22;;;;;;;3.40;2.20;;;;;;;15.25;100.00;99247.19;5057533;28;20107;-55
2021/05/10 03:41:50;;;;;;;3.05;2.00;;;;;;;15.10;100.00;99247.59;5056373;28;20045;-55
2021/05/10 03:44:17;;;;;;;3.30;1.92;;;;;;;15.24;100.00;99269.72;5057263;28;20037;-55
2021/05/10 03:46:43;;;;;;;2.42;2.00;;;;;;;14.88;100.00;99290.31;5057467;28;20068;-55
2021/05/10 03:49:10;;;;;;;3.97;1.80;;;;;;;15.01;100.00;99301.94;5057987;28;20063;-57
2021/05/10 03:51:37;;;;;;;4.95;2.20;;;;;;;15.10;100.00;99297.88;5057282;28;20048;-56
2021/05/10 03:54:05;;;;;;;2.85;2.45;;;;;;;15.13;100.00;99311.66;5054607;28;20037;-56
2021/05/10 03:56:31;;;;;;;3.95;2.03;;;;;;;15.02;100.00;99303.56;5060556;28;20044;-56
2021/05/10 03:59:00;;;;;;;5.82;2.75;;;;;;;15.04;100.00;99291.56;5053184;28;20055;-54
2021/05/10 04:01:27;;;;;;;4.85;2.72;;;;;;;15.07;100.00;99279.50;5057141;28;20156;-56
2021/05/10 04:04:01;;;;;;;4.82;2.80;;;;;;;15.06;100.00;99267.94;5054195;28;20053;-55
2021/05/10 04:14:47;;;;;;;9.23;3.77;;;;;;;15.10;100.00;99268.31;5058269;28;20043;-57
2021/05/10 04:17:13;;;;;;;5.20;3.67;;;;;;;14.98;100.00;99289.75;5263314;22;20060;-60
2021/05/10 04:19:41;;;;;;;8.02;4.40;;;;;;;15.08;100.00;99287.34;5058590;28;20055;-60
2021/05/10 04:22:07;;;;;;;7.15;4.68;;;;;;;15.14;100.00;99288.31;5057748;28;20048;-60
2021/05/10 04:24:34;;;;;;;10.27;4.35;;;;;;;15.32;100.00;99290.06;5060502;28;20044;-60
2021/05/10 04:27:04;;;;;;;5.65;4.10;;;;;;;15.52;100.00;99311.25;5059605;28;20053;-60
2021/05/10 04:29:31;;;;;;;6.18;5.05;;;;;;;15.37;100.00;99322.50;5058971;28;20053;-60
2021/05/10 04:31:59;;;;;;;7.18;5.30;;;;;;;15.33;100.00;99334.75;5059480;28;20104;-60
2021/05/10 04:34:26;;;;;;;9.85;6.13;;;;;;;15.26;100.00;99344.78;5056585;28;20131;-60
2021/05/10 04:36:53;;;;;;;8.77;6.15;;;;;;;15.40;100.00;99342.72;5059768;28;20056;-60
2021/05/10 04:39:21;;;;;;;8.30;5.40;;;;;;;15.39;100.00;99341.88;5059153;28;20379;-60
2021/05/10 04:41:47;;;;;;;8.50;5.03;;;;;;;15.36;100.00;99347.75;5060563;28;20055;-60
2021/05/10 04:44:14;;;;;;;6.00;4.30;;;;;;;15.38;100.00;99351.03;5058726;28;20072;-60
2021/05/10 04:46:41;;;;;;;5.90;4.25;;;;;;;15.51;100.00;99350.00;5061675;28;20060;-60
2021/05/10 04:49:09;;;;;;;7.15;3.70;;;;;;;15.58;100.00;99349.88;5062110;28;20051;-60
2021/05/10 04:51:36;;;;;;;5.30;3.60;;;;;;;15.56;100.00;99354.69;5059534;28;20041;-60
2021/05/10 04:54:03;;;;;;;5.80;3.60;;;;;;;15.66;100.00;99361.13;5059286;28;20047;-60
2021/05/10 04:56:31;;;;;;;5.57;3.10;;;;;;;15.52;100.00;99367.75;5060459;28;20555;-60
2021/05/10 04:58:59;;;;;;;5.70;2.97;;;;;;;15.28;100.00;99378.47;5062156;28;20315;-60
2021/05/10 05:01:25;;;;;;;5.40;2.70;;;;;;;15.25;100.00;99383.47;5060971;28;20036;-60
2021/05/10 05:03:52;;;;;;;7.78;3.33;;;;;;;15.37;100.00;99391.59;5058467;28;20044;-60
2021/05/10 05:06:20;;;;;;;5.32;3.50;;;;;;;15.29;100.00;99387.34;5058141;28;20036;-61
2021/05/10 05:08:47;;;;;;;3.55;2.50;;;;;;;15.26;100.00;99390.50;5063213;28;20052;-61
2021/05/10 05:11:14;;;;;;;4.10;2.65;;;;;;;15.47;100.00;99381.09;5059470;28;20048;-61
2021/05/10 05:13:41;;;;;;;4.35;2.83;;;;;;;15.42;100.00;99403.31;5053340;28;20041;-63
2021/05/10 05:16:08;;;;;;;6.75;2.80;;;;;;;15.20;100.00;99403.00;5060180;28;20037;-58
2021/05/10 05:18:35;;;;;;;6.03;3.45;;;;;;;15.07;100.00;99414.75;5054884;28;20052;-59
2021/05/10 05:21:02;;;;;;;5.05;3.45;;;;;;;14.99;100.00;99428.50;5058624;28;20044;-59
2021/05/10 05:23:29;;;;;;;6.47;2.83;;;;;;;15.17;100.00;99445.63;5060376;28;20091;-60
2021/05/10 05:25:58;;;;;;;7.72;3.17;;;;;;;14.86;100.00;99450.19;5059954;28;20033;-59
2021/05/10 05:28:26;;;;;;;4.85;3.17;;;;;;;15.33;100.00;99445.81;5055893;28;20041;-59
2021/05/10 05:30:55;;;;;;;4.18;3.08;;;;;;;15.15;100.00;99448.56;5060220;28;20103;-59
2021/05/10 05:33:22;;;;;;;4.57;3.15;;;;;;;15.40;100.00;99456.50;5055751;28;20051;-59
2021/05/10 05:35:50;;;;;;;4.78;2.90;;;;;;;15.65;100.00;99461.75;5057138;28;20045;-59
2021/05/10 05:38:17;;;;;;;5.10;2.95;;;;;;;15.26;100.00;99468.50;5057501;28;20041;-59
2021/05/10 05:40:46;;;;;;;6.35;3.17;;;;;;;15.12;100.00;99465.16;5058703;28;20036;-59
2021/05/10 05:43:13;;;;;;;4.15;3.35;;;;;;;15.26;100.00;99476.56;5054052;28;20205;-59
2021/05/10 05:45:41;;;;;;;3.67;2.47;;;;;;;15.26;100.00;99481.94;5057032;28;20041;-59
2021/05/10 05:48:10;;;;;;;4.80;3.30;;;;;;;15.22;100.00;99491.50;5057537;28;20457;-59
2021/05/10 05:50:38;;;;;;;5.20;2.97;;;;;;;15.45;100.00;99497.00;5056734;28;20044;-59
2021/05/10 05:53:06;;;;;;;5.40;2.90;;;;;;;15.15;100.00;99513.09;5055314;28;20266;-59
2021/05/10 05:55:33;;;;;;;5.47;2.90;;;;;;;15.46;100.00;99513.94;5057819;28;20042;-59
2021/05/10 05:58:01;;;;;;;3.67;3.25;;;;;;;15.49;100.00;99521.56;5057206;28;20055;-59
2021/05/10 06:00:29;;;;;;;4.20;3.00;;;;;;;15.36;100.00;99540.56;5061562;28;20051;-60
2021/05/10 06:02:56;;;;;;;4.30;3.08;;;;;;;15.42;100.00;99532.44;5055878;28;20040;-59
2021/05/10 06:05:23;;;;;;;4.65;2.80;;;;;;;15.23;100.00;99536.19;5059944;28;20037;-59
2021/05/10 06:07:51;;;;;;;3.70;2.72;;;;;;;15.20;100.00;99531.25;5060342;28;20252;-59
2021/05/10 06:10:20;;;;;;;5.75;3.63;;;;;;;15.30;100.00;99531.53;5056919;28;20040;-59
2021/05/10 06:12:49;;;;;;;6.28;3.08;;;;;;;15.20;100.00;99539.31;5053006;28;20060;-59
2021/05/10 06:15:18;;;;;;;4.30;2.90;;;;;;;15.19;100.00;99537.66;5058776;28;20436;-59
2021/05/10 06:17:45;;;;;;;4.78;2.83;;;;;;;15.39;100.00;99553.56;5055583;28;20041;-58
2021/05/10 06:20:13;;;;;;;5.10;3.58;;;;;;;15.62;100.00;99550.16;5058872;28;20051;-59
2021/05/10 06:22:41;;;;;;;4.30;2.97;;;;;;;15.24;100.00;99554.78;5059711;28;20056;-56
2021/05/10 06:25:09;;;;;;;4.38;3.00;;;;;;;15.91;100.00;99566.59;5061689;28;20045;-58
2021/05/10 06:27:37;;;;;;;3.53;2.67;;;;;;;15.92;100.00;99560.97;5053159;28;20049;-58
2021/05/10 06:30:05;;;;;;;3.75;2.80;;;;;;;15.63;100.00;99571.47;5061830;28;20044;-58
2021/05/10 06:32:33;;;;;;;5.47;3.50;;;;;;;15.76;100.00;99578.56;5057521;28;20366;-59
2021/05/10 06:35:01;;;;;;;3.35;2.75;;;;;;;15.74;100.00;99586.03;5055032;28;20505;-59
2021/05/10 06:37:29;;;;;;;4.72;2.80;;;;;;;16.17;100.00;99585.06;5061325;28;20324;-59
2021/05/10 06:39:56;;;;;;;6.07;2.70;;;;;;;16.50;100.00;99578.34;5062089;28;20045;-59
2021/05/10 06:42:23;;;;;;;5.07;3.17;;;;;;;16.57;100.00;99585.47;5057776;28;20056;-59
2021/05/10 06:44:51;;;;;;;5.28;3.63;;;;;;;16.76;100.00;99581.63;5059071;28;20040;-59
2021/05/10 06:47:18;;;;;;;5.63;3.40;;;;;;;16.72;100.00;99596.63;5056295;28;20311;-59
2021/05/10 06:49:46;;;;;;;6.90;3.75;;;;;;;16.60;100.00;99601.19;5057948;28;20068;-59
2021/05/10 06:52:13;;;;;;;3.97;3.22;;;;;;;17.16;100.00;99602.50;5058082;28;20071;-59
2021/05/10 06:54:40;;;;;;;4.60;3.47;;;;;;;16.51;100.00;99600.69;5058999;28;20075;-59
2021/05/10 06:57:07;;;;;;;6.40;3.50;;;;;;;17.52;100.00;99597.88;5060769;28;21387;-59
2021/05/10 06:59:34;;;;;;;5.05;3.47;;;;;;;18.09;100.00;99609.81;5055425;28;20048;-59
2021/05/10 07:02:01;;;;;;;7.50;3.90;;;;;;;18.21;100.00;99602.44;5057740;28;20044;-59
2021/05/10 07:04:28;;;;;;;6.65;3.67;;;;;;;19.03;100.00;99613.81;5057294;28;20036;-58
2021/05/10 07:06:56;;;;;;;4.70;3.30;;;;;;;17.73;100.00;99627.97;5060329;28;20036;-58
2021/05/10 07:09:23;;;;;;;5.00;3.10;;;;;;;17.10;100.00;99627.75;5055719;28;20041;-58
2021/05/10 07:11:49;;;;;;;5.63;3.42;;;;;;;17.24;100.00;99627.47;5057207;28;20052;-58
2021/05/10 07:14:16;;;;;;;4.60;3.38;;;;;;;17.08;100.00;99624.47;5053311;28;20424;-58
2021/05/10 07:16:43;;;;;;;5.80;3.80;;;;;;;17.17;100.00;99639.22;5059288;28;20040;-58
2021/05/10 07:19:10;;;;;;;4.65;3.47;;;;;;;17.95;100.00;99648.97;5056386;28;20143;-58
2021/05/10 07:21:38;;;;;;;6.35;3.25;;;;;;;17.85;100.00;99646.88;5062281;28;20305;-58
2021/05/10 07:24:06;;;;;;;6.30;3.65;;;;;;;18.01;100.00;99646.13;5052610;28;20048;-58
2021/05/10 07:26:34;;;;;;;4.18;3.05;;;;;;;16.97;100.00;99646.88;5054469;28;20052;-58
2021/05/10 07:29:02;;;;;;;5.25;3.40;;;;;;;17.92;100.00;99646.72;5056015;28;20048;-58
2021/05/10 07:31:29;;;;;;;8.98;4.53;;;;;;;17.27;100.00;99654.00;5057477;28;20054;-58
2021/05/10 07:33:56;;;;;;;4.97;3.67;;;;;;;17.16;100.00;99645.66;5054206;28;20048;-58
2021/05/10 07:36:23;;;;;;;4.82;3.85;;;;;;;18.06;100.00;99651.63;5060148;28;20087;-59
2021/05/10 07:38:50;;;;;;;5.90;3.58;;;;;;;18.27;100.00;99648.47;5058471;28;20051;-58
2021/05/10 07:41:17;;;;;;;3.70;2.85;;;;;;;17.61;100.00;99660.41;5058778;28;20344;-58
2021/05/10 07:43:44;;;;;;;5.85;3.03;;;;;;;17.20;100.00;99673.00;5053788;28;20051;-58
2021/05/10 07:46:11;;;;;;;7.60;4.60;;;;;;;17.11;100.00;99679.78;5055948;28;20103;-58
2021/05/10 07:48:38;;;;;;;5.22;2.95;;;;;;;16.45;100.00;99680.59;5058027;28;20356;-57
2021/05/10 07:51:05;;;;;;;6.95;3.38;;;;;;;16.56;100.00;99691.63;5058176;28;20369;-58
2021/05/10 07:53:31;;;;;;;4.55;3.13;;;;;;;17.15;100.00;99694.47;5059637;28;20055;-58
2021/05/10 07:55:58;;;;;;;5.03;3.10;;;;;;;17.10;100.00;99692.47;5059501;28;20443;-58
2021/05/10 07:58:27;;;;;;;5.63;3.38;;;;;;;17.03;100.00;99683.66;5057007;28;20041;-58
2021/05/10 08:00:56;;;;;;;8.15;3.08;;;;;;;17.06;100.00;99698.56;5055467;28;20049;-58
2021/05/10 08:03:26;;;;;;;5.22;2.60;;;;;;;16.67;100.00;99715.09;5056665;28;20044;-58
2021/05/10 08:05:54;;;;;;;5.22;2.95;;;;;;;16.84;100.00;99708.00;5056816;28;20071;-58
2021/05/10 08:08:23;;;;;;;3.83;2.92;;;;;;;16.17;100.00;99721.56;5051743;28;20048;-58
2021/05/10 08:10:50;;;;;;;6.60;3.55;;;;;;;16.00;100.00;99724.06;5056270;28;20056;-58
2021/05/10 08:13:17;;;;;;;5.28;3.47;;;;;;;15.67;100.00;99722.53;5053752;28;20446;-58
2021/05/10 08:15:45;;;;;;;7.22;3.75;;;;;;;16.34;100.00;99719.09;5058853;28;20052;-58
2021/05/10 08:18:12;;;;;;;6.72;4.03;;;;;;;16.06;100.00;99733.94;5058162;28;20344;-58
2021/05/10 08:20:41;;;;;;;4.60;3.47;;;;;;;16.04;100.00;99737.91;5059835;28;20044;-58
2021/05/10 08:23:08;;;;;;;6.03;3.47;;;;;;;16.82;100.00;99737.06;5057790;28;20048;-58
2021/05/10 08:25:36;;;;;;;5.30;3.60;;;;;;;16.61;100.00;99735.69;5062516;28;20039;-58
2021/05/10 08:28:03;;;;;;;8.85;4.15;;;;;;;15.66;100.00;99739.72;5060773;28;20102;-58
2021/05/10 08:30:30;;;;;;;4.78;3.38;;;;;;;15.90;100.00;99745.31;5060820;28;20352;-58
2021/05/10 08:32:58;;;;;;;5.88;3.47;;;;;;;16.26;100.00;99749.03;5061573;28;20048;-58
2021/05/10 08:35:26;;;;;;;6.32;3.92;;;;;;;16.24;100.00;99749.25;5062798;28;20073;-58
2021/05/10 08:37:58;;;;;;;5.25;3.90;;;;;;;15.69;100.00;99746.53;5063324;28;20041;-58
2021/05/10 08:40:25;;;;;;;7.43;3.50;;;;;;;16.16;100.00;99750.41;5062412;28;20049;-58
2021/05/10 08:42:51;;;;;;;9.73;3.90;;;;;;;16.21;100.00;99762.38;5056096;28;20048;-58
2021/05/10 08:45:19;;;;;;;5.60;3.30;;;;;;;16.28;100.00;99765.78;5061795;28;20041;-57
2021/05/10 08:47:47;;;;;;;6.32;3.50;;;;;;;16.35;100.00;99761.13;5062738;28;20049;-57
2021/05/10 08:50:16;;;;;;;4.47;3.03;;;;;;;15.28;100.00;99773.81;5063805;28;21130;-57
2021/05/10 08:52:43;;;;;;;6.40;2.72;;;;;;;15.71;100.00;99779.44;5059687;28;20166;-57
2021/05/10 08:55:14;;;;;;;6.10;2.97;;;;;;;15.99;100.00;99773.56;5060929;28;20037;-57
2021/05/10 08:57:41;;;;;;;4.80;2.10;;;;;;;16.66;100.00;99770.88;5056976;28;20071;-57
2021/05/10 09:00:11;;;;;;;6.72;2.22;;;;;;;16.97;100.00;99770.91;5063848;28;20468;-57
2021/05/10 09:02:38;;;;;;;7.18;3.05;;;;;;;17.73;100.00;99771.06;5060474;28;20440;-58
2021/05/10 09:05:14;;;;;;;5.70;2.20;;;;;;;16.54;100.00;99775.38;5060566;28;20049;-58
2021/05/10 09:07:42;;;;;;;6.88;2.13;;;;;;;17.41;100.00;99784.94;5056479;28;20033;-58
2021/05/10 09:10:11;;;;;;;6.90;2.88;;;;;;;17.29;100.00;99784.91;5061165;28;20049;-58
2021/05/10 09:12:45;;;;;;;7.65;2.70;;;;;;;17.87;100.00;99799.47;5056627;28;20396;-58
2021/05/10 09:15:31;;;;;;;9.82;2.60;;;;;;;17.94;100.00;99802.09;5060540;28;20312;-58
2021/05/10 09:17:59;;;;;;;7.10;2.50;;;;;;;19.38;100.00;99807.56;5061528;28;20056;-58
2021/05/10 09:20:28;;;;;;;5.53;2.70;;;;;;;18.88;100.00;99806.44;5058014;28;20310;-58
2021/05/10 09:22:57;;;;;;;5.47;2.75;;;;;;;20.09;100.00;99809.69;5059576;28;20370;-58
2021/05/10 09:25:31;;;;;;;5.22;2.53;;;;;;;20.55;100.00;99805.91;5059992;28;20053;-58
2021/05/10 09:28:13;;;;;;;4.70;2.70;;;;;;;18.97;100.00;99814.13;5059719;28;20044;-58
2021/05/10 09:30:41;;;;;;;5.70;2.17;;;;;;;19.42;100.00;99813.28;5061866;28;20283;-58
2021/05/10 09:33:15;;;;;;;6.43;2.50;;;;;;;19.86;100.00;99810.75;5058913;28;20064;-58
2021/05/10 09:35:45;;;;;;;5.50;2.30;;;;;;;18.98;100.00;99822.03;5063471;28;20048;-58
2021/05/10 09:38:13;;;;;;;3.78;2.17;;;;;;;20.29;100.00;99814.56;5060012;28;20048;-58
2021/05/10 09:40:46;;;;;;;5.18;1.80;;;;;;;21.08;100.00;99822.50;5060704;28;20090;-58
2021/05/10 09:43:14;;;;;;;6.45;2.92;;;;;;;21.04;100.00;99826.81;5059693;28;20826;-58
2021/05/10 09:45:47;;;;;;;3.75;1.73;;;;;;;18.74;100.00;99838.31;5066559;28;20050;-58
2021/05/10 09:48:20;;;;;;;4.00;2.65;;;;;;;18.24;100.00;99833.50;5060393;28;20565;-58
2021/05/10 09:50:49;;;;;;;11.25;2.35;;;;;;;18.54;100.00;99836.03;5056847;28;20049;-58
2021/05/10 09:53:26;;;;;;;6.20;2.20;;;;;;;18.75;100.00;99850.78;5055021;28;20460;-58
2021/05/10 09:55:54;;;;;;;3.28;1.80;;;;;;;18.54;100.00;99844.16;5061536;28;20060;-58
2021/05/10 09:58:22;;;;;;;8.63;2.00;;;;;;;19.80;100.00;99844.22;5060015;28;20088;-60
2021/05/10 10:00:57;;;;;;;5.05;1.80;;;;;;;17.80;100.00;99850.06;5058490;28;20526;-58
2021/05/10 10:03:36;;;;;;;7.82;2.33;;;;;;;17.99;100.00;99864.31;5057891;28;20036;-59
2021/05/10 10:06:06;;;;;;;6.28;1.85;;;;;;;21.75;100.00;99866.56;5060134;28;20044;-60
2021/05/10 10:08:35;;;;;;;8.65;2.85;;;;;;;21.62;100.00;99874.06;5061865;28;20059;-58
2021/05/10 10:11:03;;;;;;;3.83;1.67;;;;;;;21.63;100.00;99862.13;5063527;28;20103;-58
2021/05/10 10:13:30;;;;;;;4.93;1.40;;;;;;;20.94;100.00;99866.34;5057491;28;20048;-58
2021/05/10 10:15:58;;;;;;;3.05;1.65;;;;;;;19.32;100.00;99880.78;5058522;28;20049;-60
2021/05/10 10:18:26;;;;;;;11.18;1.80;;;;;;;19.27;100.00;99887.75;5059499;28;20432;-60
2021/05/10 10:20:55;;;;;;;4.43;1.88;;;;;;;20.16;100.00;99893.53;5060395;28;20166;-60
2021/05/10 10:23:23;;;;;;;5.10;1.80;;;;;;;20.80;100.00;99889.50;5056028;28;20052;-60
2021/05/10 10:25:52;;;;;;;2.95;1.38;;;;;;;19.85;100.00;99895.78;5056762;28;20358;-60
2021/05/10 10:28:21;;;;;;;2.45;1.60;;;;;;;18.55;100.00;99904.44;5059241;28;20047;-60
2021/05/10 10:30:55;;;;;;;5.03;1.75;;;;;;;18.42;100.00;99884.72;5058117;28;20048;-60
2021/05/10 10:33:27;;;;;;;6.95;1.67;;;;;;;18.11;100.00;99902.13;5055198;28;20346;-60
2021/05/10 10:35:54;;;;;;;5.70;1.98;;;;;;;19.06;100.00;99910.91;5064283;28;20039;-60
2021/05/10 10:38:32;;;;;;;4.63;1.60;;;;;;;19.64;100.00;99915.47;5054251;28;20056;-60
2021/05/10 10:41:20;;;;;;;7.22;2.10;;;;;;;18.69;100.00;99913.13;5057782;28;20428;-60
2021/05/10 10:43:47;;;;;;;3.75;1.73;;;;;;;21.04;100.00;99914.47;5056666;28;20094;-60
2021/05/10 10:46:29;;;;;;;7.80;1.92;;;;;;;21.15;100.00;99909.97;5063133;28;20032;-60
2021/05/10 10:48:58;;;;;;;3.40;1.95;;;;;;;19.16;100.00;99923.81;5058131;28;20156;-60
2021/05/10 10:51:26;;;;;;;4.85;1.92;;;;;;;19.25;100.00;99906.13;5057778;28;20052;-60
2021/05/10 10:53:55;;;;;;;5.45;2.08;;;;;;;19.89;100.00;99913.19;5057445;28;20052;-60
2021/05/10 10:56:49;;;;;;;7.78;2.00;;;;;;;20.10;100.00;99914.31;5059215;28;20036;-60
2021/05/10 10:59:27;;;;;;;7.70;1.83;;;;;;;20.14;100.00;99914.63;5054572;28;20171;-60
2021/05/10 11:01:54;;;;;;;4.18;1.88;;;;;;;20.73;100.00;99927.69;5058934;28;20045;-60
2021/05/10 11:04:28;;;;;;;5.72;2.13;;;;;;;20.58;100.00;99925.56;5055414;28;20326;-60
2021/05/10 11:06:55;;;;;;;4.40;1.60;;;;;;;21.71;100.00;99926.00;5060719;28;20071;-60
2021/05/10 11:09:48;;;;;;;3.60;2.08;;;;;;;20.90;100.00;99922.19;5059423;28;20053;-60
2021/05/10 11:12:47;;;;;;;6.25;1.80;;;;;;;21.83;100.00;99926.66;5054224;28;20053;-60
2021/05/10 11:15:16;;;;;;;6.95;2.25;;;;;;;21.51;100.00;99942.91;5057486;28;20041;-60
2021/05/10 11:17:52;;;;;;;4.35;1.45;;;;;;;21.76;100.00;99927.94;5059481;28;20049;-60
2021/05/10 11:20:37;;;;;;;3.40;1.60;;;;;;;21.53;100.00;99927.19;5059196;28;20067;-60
2021/05/10 11:23:32;;;;;;;2.80;1.45;;;;;;;21.15;100.00;99935.22;5056933;28;20068;-60
2021/05/10 11:26:00;;;;;;;4.57;1.70;;;;;;;22.01;100.00;99933.59;5047709;28;20047;-60
2021/05/10 11:28:47;;;;;;;5.28;1.70;;;;;;;22.12;100.00;99925.50;5059266;28;20028;-60
2021/05/10 11:31:20;;;;;;;4.60;2.03;;;;;;;21.74;100.00;99940.97;5058308;28;20576;-60
2021/05/10 11:34:08;;;;;;;4.10;1.92;;;;;;;21.87;100.00;99940.53;5054685;28;20056;-60
2021/05/10 11:36:37;;;;;;;2.58;1.38;;;;;;;21.79;100.00;99932.88;5058763;28;20037;-59
2021/05/10 11:39:06;;;;;;;1.98;1.50;;;;;;;23.07;100.00;99951.03;5060064;28;20061;-60